sensor_id;sensor_type;location;lat;lon;timestamp;noise_LAeq;noise_LA_min;noise_LA_max;noise_LA01;noise_LA95
70740;Laerm;58330;51.888;11.052;2024-02-23T00:01:30;5.00;5.00;5.00;;
70740;Laerm;58330;51.888;11.052;2024-02-23T00:03:57;5.00;5.00;5.00;;
70740;Laerm;58330;51.888;11.052;2024-02-23T00:06:25;29.22;5.00;30.98;;
70740;Laerm;58330;51.888;11.052;2024-02-23T00:08:52;29.50;28.14;30.68;;
70740;Laerm;58330;51.888;11.052;2024-02-23T00:11:19;29.51;27.93;30.93;;
70740;Laerm;58330;51.888;11.052;2024-02-23T00:13:46;29.47;28.19;30.76;;
70740;Laerm;58330;51.888;11.052;2024-02-23T00:16:12;29.40;27.66;30.78;;
70740;Laerm;58330;51.888;11.052;2024-02-23T00:18:39;29.30;28.04;30.45;;
70740;Laerm;58330;51.888;11.052;2024-02-23T00:21:05;29.22;27.53;30.54;;
70740;Laerm;58330;51.888;11.052;2024-02-23T00:23:33;29.08;27.63;30.27;;
70740;Laerm;58330;51.888;11.052;2024-02-23T00:26:00;29.02;27.56;30.22;;
70740;Laerm;58330;51.888;11.052;2024-02-23T00:28:26;29.00;27.54;30.28;;
70740;Laerm;58330;51.888;11.052;2024-02-23T00:30:53;28.98;27.74;30.29;;
70740;Laerm;58330;51.888;11.052;2024-02-23T00:33:19;29.03;27.83;30.32;;
70740;Laerm;58330;51.888;11.052;2024-02-23T00:35:45;71.43;27.88;101.30;;
70740;Laerm;58330;51.888;11.052;2024-02-23T00:38:12;29.43;27.69;55.41;;
70740;Laerm;58330;51.888;11.052;2024-02-23T00:40:39;27.69;-323.53;30.06;;
70740;Laerm;58330;51.888;11.052;2024-02-23T00:43:06;66.99;-326.54;103.26;;
70740;Laerm;58330;51.888;11.052;2024-02-23T00:45:32;5.00;5.00;5.00;;
70740;Laerm;58330;51.888;11.052;2024-02-23T00:47:59;5.00;5.00;5.00;;
70740;Laerm;58330;51.888;11.052;2024-02-23T00:50:26;5.00;5.00;5.00;;
70740;Laerm;58330;51.888;11.052;2024-02-23T00:52:52;5.00;5.00;5.00;;
70740;Laerm;58330;51.888;11.052;2024-02-23T00:55:19;5.00;5.00;5.00;;
70740;Laerm;58330;51.888;11.052;2024-02-23T00:57:47;5.00;5.00;5.00;;
70740;Laerm;58330;51.888;11.052;2024-02-23T01:00:16;5.00;5.00;5.00;;
70740;Laerm;58330;51.888;11.052;2024-02-23T01:02:42;5.00;5.00;5.00;;
70740;Laerm;58330;51.888;11.052;2024-02-23T01:05:09;5.00;5.00;5.00;;
70740;Laerm;58330;51.888;11.052;2024-02-23T01:07:35;5.00;5.00;5.00;;
70740;Laerm;58330;51.888;11.052;2024-02-23T01:10:02;5.00;5.00;5.00;;
70740;Laerm;58330;51.888;11.052;2024-02-23T01:12:29;5.00;5.00;5.00;;
70740;Laerm;58330;51.888;11.052;2024-02-23T01:14:56;5.00;5.00;5.00;;
70740;Laerm;58330;51.888;11.052;2024-02-23T01:17:23;5.00;5.00;5.00;;
70740;Laerm;58330;51.888;11.052;2024-02-23T01:19:49;5.00;5.00;5.00;;
70740;Laerm;58330;51.888;11.052;2024-02-23T01:22:17;5.00;5.00;5.00;;
70740;Laerm;58330;51.888;11.052;2024-02-23T01:24:43;5.00;5.00;5.00;;
70740;Laerm;58330;51.888;11.052;2024-02-23T01:27:09;5.00;5.00;5.00;;
70740;Laerm;58330;51.888;11.052;2024-02-23T01:29:36;5.00;5.00;5.00;;
70740;Laerm;58330;51.888;11.052;2024-02-23T01:32:04;5.00;5.00;5.00;;
70740;Laerm;58330;51.888;11.052;2024-02-23T01:34:31;5.00;5.00;5.00;;
70740;Laerm;58330;51.888;11.052;2024-02-23T01:36:58;5.00;5.00;5.00;;
70740;Laerm;58330;51.888;11.052;2024-02-23T01:39:25;5.00;5.00;5.00;;
70740;Laerm;58330;51.888;11.052;2024-02-23T01:41:51;5.00;5.00;5.00;;
70740;Laerm;58330;51.888;11.052;2024-02-23T01:44:20;5.00;5.00;5.00;;
70740;Laerm;58330;51.888;11.052;2024-02-23T01:46:46;5.00;5.00;5.00;;
70740;Laerm;58330;51.888;11.052;2024-02-23T01:49:14;5.00;5.00;5.00;;
70740;Laerm;58330;51.888;11.052;2024-02-23T01:51:41;5.00;5.00;5.00;;
70740;Laerm;58330;51.888;11.052;2024-02-23T01:54:07;5.00;5.00;5.00;;
70740;Laerm;58330;51.888;11.052;2024-02-23T01:56:35;5.00;5.00;5.00;;
70740;Laerm;58330;51.888;11.052;2024-02-23T01:59:04;5.00;5.00;5.00;;
70740;Laerm;58330;51.888;11.052;2024-02-23T02:01:32;5.00;5.00;5.00;;
70740;Laerm;58330;51.888;11.052;2024-02-23T02:03:58;4.84;-334.33;13.26;;
70740;Laerm;58330;51.888;11.052;2024-02-23T02:06:26;37.24;-329.56;73.47;;
70740;Laerm;58330;51.888;11.052;2024-02-23T02:08:53;76.55;-140.13;109.84;;
70740;Laerm;58330;51.888;11.052;2024-02-23T02:11:20;4.89;-326.54;5.00;;
70740;Laerm;58330;51.888;11.052;2024-02-23T02:13:46;5.00;5.00;5.00;;
70740;Laerm;58330;51.888;11.052;2024-02-23T02:16:12;5.00;5.00;5.00;;
70740;Laerm;58330;51.888;11.052;2024-02-23T02:18:38;5.00;5.00;5.00;;
70740;Laerm;58330;51.888;11.052;2024-02-23T02:21:05;5.00;5.00;5.00;;
70740;Laerm;58330;51.888;11.052;2024-02-23T02:23:33;5.00;5.00;5.00;;
70740;Laerm;58330;51.888;11.052;2024-02-23T02:26:02;5.00;5.00;5.00;;
70740;Laerm;58330;51.888;11.052;2024-02-23T02:28:29;5.00;5.00;5.00;;
70740;Laerm;58330;51.888;11.052;2024-02-23T02:30:56;5.00;5.00;5.00;;
70740;Laerm;58330;51.888;11.052;2024-02-23T02:33:22;5.00;5.00;5.00;;
70740;Laerm;58330;51.888;11.052;2024-02-23T02:35:49;5.00;5.00;5.00;;
70740;Laerm;58330;51.888;11.052;2024-02-23T02:38:16;5.00;5.00;5.00;;
70740;Laerm;58330;51.888;11.052;2024-02-23T02:40:44;5.00;5.00;5.00;;
70740;Laerm;58330;51.888;11.052;2024-02-23T02:43:10;5.00;5.00;5.00;;
70740;Laerm;58330;51.888;11.052;2024-02-23T02:45:37;5.00;5.00;5.00;;
70740;Laerm;58330;51.888;11.052;2024-02-23T02:48:04;4.86;-328.31;5.00;;
70740;Laerm;58330;51.888;11.052;2024-02-23T02:50:33;6.36;-329.56;37.34;;
70740;Laerm;58330;51.888;11.052;2024-02-23T02:53:00;5.00;5.00;5.00;;
70740;Laerm;58330;51.888;11.052;2024-02-23T02:55:27;5.00;5.00;5.00;;
70740;Laerm;58330;51.888;11.052;2024-02-23T02:57:55;51.55;-328.31;87.80;;
70740;Laerm;58330;51.888;11.052;2024-02-23T03:00:22;5.00;5.00;5.00;;
70740;Laerm;58330;51.888;11.052;2024-02-23T03:02:48;-11.48;-169.97;24.06;;
70740;Laerm;58330;51.888;11.052;2024-02-23T03:05:15;-169.96;-169.96;-169.96;;
70740;Laerm;58330;51.888;11.052;2024-02-23T03:07:42;-169.96;-169.96;-169.96;;
70740;Laerm;58330;51.888;11.052;2024-02-23T03:10:08;56.50;-328.31;92.69;;
70740;Laerm;58330;51.888;11.052;2024-02-23T03:12:35;5.00;5.00;5.00;;
70740;Laerm;58330;51.888;11.052;2024-02-23T03:15:04;5.00;5.00;5.00;;
70740;Laerm;58330;51.888;11.052;2024-02-23T03:17:31;5.00;5.00;5.00;;
70740;Laerm;58330;51.888;11.052;2024-02-23T03:19:58;5.00;5.00;5.00;;
70740;Laerm;58330;51.888;11.052;2024-02-23T03:22:24;5.00;5.00;5.00;;
70740;Laerm;58330;51.888;11.052;2024-02-23T03:24:51;5.00;5.00;5.00;;
70740;Laerm;58330;51.888;11.052;2024-02-23T03:27:18;71.11;-324.33;106.11;;
70740;Laerm;58330;51.888;11.052;2024-02-23T03:29:45;89.13;-325.30;109.46;;
70740;Laerm;58330;51.888;11.052;2024-02-23T03:32:13;5.00;5.00;5.00;;
70740;Laerm;58330;51.888;11.052;2024-02-23T03:34:40;68.66;-331.32;104.94;;
70740;Laerm;58330;51.888;11.052;2024-02-23T03:37:06;5.00;5.00;5.00;;
70740;Laerm;58330;51.888;11.052;2024-02-23T03:39:33;5.00;5.00;5.00;;
70740;Laerm;58330;51.888;11.052;2024-02-23T03:42:01;5.00;5.00;5.00;;
70740;Laerm;58330;51.888;11.052;2024-02-23T03:44:27;5.00;5.00;5.00;;
70740;Laerm;58330;51.888;11.052;2024-02-23T03:46:54;5.00;5.00;5.00;;
70740;Laerm;58330;51.888;11.052;2024-02-23T03:49:22;5.00;5.00;5.00;;
70740;Laerm;58330;51.888;11.052;2024-02-23T03:51:49;5.00;5.00;5.00;;
70740;Laerm;58330;51.888;11.052;2024-02-23T03:54:15;5.00;5.00;5.00;;
70740;Laerm;58330;51.888;11.052;2024-02-23T03:56:42;5.00;5.00;5.00;;
70740;Laerm;58330;51.888;11.052;2024-02-23T03:59:08;5.00;5.00;5.00;;
70740;Laerm;58330;51.888;11.052;2024-02-23T04:01:35;27.96;-115.40;41.62;;
70740;Laerm;58330;51.888;11.052;2024-02-23T04:04:03;32.27;-138.68;43.75;;
70740;Laerm;58330;51.888;11.052;2024-02-23T04:06:31;32.18;-148.81;44.86;;
70740;Laerm;58330;51.888;11.052;2024-02-23T04:08:57;49.34;-152.17;85.51;;
70740;Laerm;58330;51.888;11.052;2024-02-23T04:11:23;4.90;-324.78;5.00;;
70740;Laerm;58330;51.888;11.052;2024-02-23T04:13:50;5.00;5.00;5.00;;
70740;Laerm;58330;51.888;11.052;2024-02-23T04:16:16;14.69;-324.78;29.93;;
70740;Laerm;58330;51.888;11.052;2024-02-23T04:18:44;15.22;-325.88;38.03;;
70740;Laerm;58330;51.888;11.052;2024-02-23T04:21:10;49.29;-329.56;85.51;;
70740;Laerm;58330;51.888;11.052;2024-02-23T04:23:38;29.18;27.68;30.73;;
70740;Laerm;58330;51.888;11.052;2024-02-23T04:26:05;57.92;-323.91;93.56;;
70740;Laerm;58330;51.888;11.052;2024-02-23T04:28:31;67.21;-325.88;102.46;;
70740;Laerm;58330;51.888;11.052;2024-02-23T04:30:58;5.00;5.00;5.00;;
70740;Laerm;58330;51.888;11.052;2024-02-23T04:33:25;5.00;5.00;5.00;;
70740;Laerm;58330;51.888;11.052;2024-02-23T04:35:51;5.00;5.00;5.00;;
70740;Laerm;58330;51.888;11.052;2024-02-23T04:38:18;5.00;5.00;5.00;;
70740;Laerm;58330;51.888;11.052;2024-02-23T04:40:45;5.00;5.00;5.00;;
70740;Laerm;58330;51.888;11.052;2024-02-23T04:43:12;5.00;5.00;5.00;;
70740;Laerm;58330;51.888;11.052;2024-02-23T04:45:38;5.00;5.00;5.00;;
70740;Laerm;58330;51.888;11.052;2024-02-23T04:48:05;5.00;5.00;5.00;;
70740;Laerm;58330;51.888;11.052;2024-02-23T04:50:31;5.00;5.00;5.00;;
70740;Laerm;58330;51.888;11.052;2024-02-23T04:52:58;5.00;5.00;5.00;;
70740;Laerm;58330;51.888;11.052;2024-02-23T04:55:24;5.00;5.00;5.00;;
70740;Laerm;58330;51.888;11.052;2024-02-23T04:57:52;5.00;5.00;5.00;;
70740;Laerm;58330;51.888;11.052;2024-02-23T05:00:19;5.00;5.00;5.00;;
70740;Laerm;58330;51.888;11.052;2024-02-23T05:02:45;5.00;5.00;5.00;;
70740;Laerm;58330;51.888;11.052;2024-02-23T05:05:12;5.00;5.00;5.00;;
70740;Laerm;58330;51.888;11.052;2024-02-23T05:07:38;5.00;5.00;5.00;;
70740;Laerm;58330;51.888;11.052;2024-02-23T05:10:05;5.00;5.00;5.00;;
70740;Laerm;58330;51.888;11.052;2024-02-23T05:12:31;5.00;5.00;5.00;;
70740;Laerm;58330;51.888;11.052;2024-02-23T05:14:59;5.00;5.00;5.00;;
70740;Laerm;58330;51.888;11.052;2024-02-23T05:17:25;5.00;5.00;5.00;;
70740;Laerm;58330;51.888;11.052;2024-02-23T05:19:52;5.00;5.00;5.00;;
70740;Laerm;58330;51.888;11.052;2024-02-23T05:22:19;5.00;5.00;5.00;;
70740;Laerm;58330;51.888;11.052;2024-02-23T05:24:45;106.31;-104.07;115.61;;
70740;Laerm;58330;51.888;11.052;2024-02-23T05:27:12;106.15;-53.97;115.58;;
70740;Laerm;58330;51.888;11.052;2024-02-23T05:29:38;101.68;-204.02;113.40;;
70740;Laerm;58330;51.888;11.052;2024-02-23T05:32:06;101.59;-328.31;113.48;;
70740;Laerm;58330;51.888;11.052;2024-02-23T05:34:33;101.40;-20.74;113.18;;
70740;Laerm;58330;51.888;11.052;2024-02-23T05:37:00;105.14;-17.14;114.25;;
70740;Laerm;58330;51.888;11.052;2024-02-23T05:39:27;105.17;-11.46;113.79;;
70740;Laerm;58330;51.888;11.052;2024-02-23T05:41:54;104.08;-12.87;113.61;;
70740;Laerm;58330;51.888;11.052;2024-02-23T05:44:20;103.72;-39.81;113.99;;
70740;Laerm;58330;51.888;11.052;2024-02-23T05:46:47;99.41;-16.44;112.21;;
70740;Laerm;58330;51.888;11.052;2024-02-23T05:49:15;99.46;-47.72;111.68;;
70740;Laerm;58330;51.888;11.052;2024-02-23T05:51:41;97.73;-176.85;107.43;;
70740;Laerm;58330;51.888;11.052;2024-02-23T05:54:08;97.50;-326.54;107.73;;
70740;Laerm;58330;51.888;11.052;2024-02-23T05:56:41;97.88;-34.20;112.84;;
70740;Laerm;58330;51.888;11.052;2024-02-23T05:59:07;96.78;-57.90;112.47;;
70740;Laerm;58330;51.888;11.052;2024-02-23T06:01:33;81.97;-30.94;108.02;;
70740;Laerm;58330;51.888;11.052;2024-02-23T06:04:00;79.99;-27.89;103.02;;
70740;Laerm;58330;51.888;11.052;2024-02-23T06:06:28;86.11;-2.82;109.68;;
70740;Laerm;58330;51.888;11.052;2024-02-23T06:08:56;82.31;-11.21;93.00;;
70740;Laerm;58330;51.888;11.052;2024-02-23T06:11:22;79.31;-11.62;99.72;;
70740;Laerm;58330;51.888;11.052;2024-02-23T06:13:49;82.25;-9.33;103.54;;
70740;Laerm;58330;51.888;11.052;2024-02-23T06:16:16;82.82;-28.71;105.84;;
70740;Laerm;58330;51.888;11.052;2024-02-23T06:18:43;81.33;-10.60;105.27;;
70740;Laerm;58330;51.888;11.052;2024-02-23T06:21:12;83.76;-2.85;107.51;;
70740;Laerm;58330;51.888;11.052;2024-02-23T06:23:41;88.10;19.76;108.19;;
70740;Laerm;58330;51.888;11.052;2024-02-23T06:26:08;89.77;6.34;110.70;;
70740;Laerm;58330;51.888;11.052;2024-02-23T06:28:34;90.92;10.10;109.37;;
70740;Laerm;58330;51.888;11.052;2024-02-23T06:31:02;83.36;-16.61;106.15;;
70740;Laerm;58330;51.888;11.052;2024-02-23T06:33:32;77.79;-26.59;89.87;;
70740;Laerm;58330;51.888;11.052;2024-02-23T06:35:59;76.29;-39.93;89.80;;
70740;Laerm;58330;51.888;11.052;2024-02-23T06:38:25;72.52;-34.79;86.54;;
70740;Laerm;58330;51.888;11.052;2024-02-23T06:40:54;73.83;-34.34;88.52;;
70740;Laerm;58330;51.888;11.052;2024-02-23T06:43:21;74.44;-34.40;88.66;;
70740;Laerm;58330;51.888;11.052;2024-02-23T06:45:48;75.75;-26.01;90.39;;
70740;Laerm;58330;51.888;11.052;2024-02-23T06:48:16;71.22;-29.74;88.57;;
70740;Laerm;58330;51.888;11.052;2024-02-23T06:50:43;72.46;-32.15;89.03;;
70740;Laerm;58330;51.888;11.052;2024-02-23T06:53:09;72.49;-39.50;89.06;;
70740;Laerm;58330;51.888;11.052;2024-02-23T06:55:36;72.38;-39.87;88.52;;
70740;Laerm;58330;51.888;11.052;2024-02-23T06:58:04;72.51;-32.31;86.90;;
70740;Laerm;58330;51.888;11.052;2024-02-23T07:00:32;74.12;-32.35;89.03;;
70740;Laerm;58330;51.888;11.052;2024-02-23T07:03:01;76.18;-35.95;88.66;;
70740;Laerm;58330;51.888;11.052;2024-02-23T07:05:28;75.16;-30.36;88.65;;
70740;Laerm;58330;51.888;11.052;2024-02-23T07:07:55;77.89;-11.73;89.32;;
70740;Laerm;58330;51.888;11.052;2024-02-23T07:10:22;60.12;-334.33;85.51;;
70740;Laerm;58330;51.888;11.052;2024-02-23T07:12:50;59.96;-331.32;85.47;;
70740;Laerm;58330;51.888;11.052;2024-02-23T07:15:19;61.36;56.97;62.97;;
70740;Laerm;58330;51.888;11.052;2024-02-23T07:17:46;61.67;58.35;62.96;;
70740;Laerm;58330;51.888;11.052;2024-02-23T07:20:13;61.94;58.34;63.36;;
70740;Laerm;58330;51.888;11.052;2024-02-23T07:22:42;62.91;59.05;65.22;;
70740;Laerm;58330;51.888;11.052;2024-02-23T07:25:09;55.23;27.60;65.59;;
70740;Laerm;58330;51.888;11.052;2024-02-23T07:27:36;28.64;27.18;29.91;;
70740;Laerm;58330;51.888;11.052;2024-02-23T07:30:02;28.49;27.30;29.65;;
70740;Laerm;58330;51.888;11.052;2024-02-23T07:32:31;28.51;27.31;29.73;;
70740;Laerm;58330;51.888;11.052;2024-02-23T07:34:57;73.73;-158.12;106.17;;
70740;Laerm;58330;51.888;11.052;2024-02-23T07:37:25;76.15;-95.16;107.21;;
70740;Laerm;58330;51.888;11.052;2024-02-23T07:39:52;62.43;-69.40;85.51;;
70740;Laerm;58330;51.888;11.052;2024-02-23T07:42:19;52.74;-331.32;85.51;;
70740;Laerm;58330;51.888;11.052;2024-02-23T07:44:45;56.15;-331.32;85.51;;
70740;Laerm;58330;51.888;11.052;2024-02-23T07:47:12;85.71;-328.31;109.81;;
70740;Laerm;58330;51.888;11.052;2024-02-23T07:49:40;69.05;-306.40;85.77;;
70740;Laerm;58330;51.888;11.052;2024-02-23T07:52:06;83.86;-24.70;95.75;;
70740;Laerm;58330;51.888;11.052;2024-02-23T07:54:33;59.17;49.77;66.70;;
70740;Laerm;58330;51.888;11.052;2024-02-23T07:57:00;59.17;4.69;88.10;;
70740;Laerm;58330;51.888;11.052;2024-02-23T07:59:26;45.44;27.23;63.97;;
70740;Laerm;58330;51.888;11.052;2024-02-23T08:01:53;28.45;26.97;29.65;;
70740;Laerm;58330;51.888;11.052;2024-02-23T08:04:21;91.93;7.55;112.29;;
70740;Laerm;58330;51.888;11.052;2024-02-23T08:06:50;105.41;27.27;113.05;;
70740;Laerm;58330;51.888;11.052;2024-02-23T08:09:17;28.41;27.14;29.64;;
70740;Laerm;58330;51.888;11.052;2024-02-23T08:11:43;107.15;-331.32;114.79;;
70740;Laerm;58330;51.888;11.052;2024-02-23T08:14:11;91.22;-329.56;114.35;;
70740;Laerm;58330;51.888;11.052;2024-02-23T08:16:39;72.07;-331.32;96.23;;
70740;Laerm;58330;51.888;11.052;2024-02-23T08:19:06;5.00;5.00;5.00;;
70740;Laerm;58330;51.888;11.052;2024-02-23T08:21:33;5.00;5.00;5.00;;
70740;Laerm;58330;51.888;11.052;2024-02-23T08:24:07;5.00;5.00;5.00;;
70740;Laerm;58330;51.888;11.052;2024-02-23T08:26:36;81.30;-325.88;100.36;;
70740;Laerm;58330;51.888;11.052;2024-02-23T08:29:04;28.47;27.18;29.63;;
70740;Laerm;58330;51.888;11.052;2024-02-23T08:31:31;28.48;27.22;29.84;;
70740;Laerm;58330;51.888;11.052;2024-02-23T08:33:58;28.49;27.12;29.75;;
70740;Laerm;58330;51.888;11.052;2024-02-23T08:36:24;28.40;27.16;29.58;;
70740;Laerm;58330;51.888;11.052;2024-02-23T08:38:51;28.39;27.23;30.55;;
70740;Laerm;58330;51.888;11.052;2024-02-23T08:41:20;14.88;-331.32;29.19;;
70740;Laerm;58330;51.888;11.052;2024-02-23T08:43:46;5.00;5.00;5.00;;
70740;Laerm;58330;51.888;11.052;2024-02-23T08:46:13;5.00;5.00;5.00;;
70740;Laerm;58330;51.888;11.052;2024-02-23T08:48:39;5.00;5.00;5.00;;
70740;Laerm;58330;51.888;11.052;2024-02-23T08:51:06;5.00;5.00;5.00;;
70740;Laerm;58330;51.888;11.052;2024-02-23T08:53:32;4.87;-323.91;5.00;;
70740;Laerm;58330;51.888;11.052;2024-02-23T08:55:59;86.97;-326.54;110.24;;
70740;Laerm;58330;51.888;11.052;2024-02-23T08:58:27;4.95;-331.32;5.00;;
70740;Laerm;58330;51.888;11.052;2024-02-23T09:00:53;5.00;5.00;5.00;;
70740;Laerm;58330;51.888;11.052;2024-02-23T09:03:20;5.00;5.00;5.00;;
70740;Laerm;58330;51.888;11.052;2024-02-23T09:05:46;5.00;5.00;5.00;;
70740;Laerm;58330;51.888;11.052;2024-02-23T09:08:13;5.00;5.00;5.00;;
70740;Laerm;58330;51.888;11.052;2024-02-23T09:10:40;54.86;5.00;87.88;;
70740;Laerm;58330;51.888;11.052;2024-02-23T09:13:08;104.54;28.48;112.64;;
70740;Laerm;58330;51.888;11.052;2024-02-23T09:15:38;101.15;27.48;112.46;;
70740;Laerm;58330;51.888;11.052;2024-02-23T09:18:07;28.84;27.56;39.44;;
70740;Laerm;58330;51.888;11.052;2024-02-23T09:20:34;40.18;27.71;50.03;;
70740;Laerm;58330;51.888;11.052;2024-02-23T09:23:00;28.78;27.65;33.19;;
70740;Laerm;58330;51.888;11.052;2024-02-23T09:25:28;30.89;27.73;48.20;;
70740;Laerm;58330;51.888;11.052;2024-02-23T09:27:56;39.08;27.39;51.20;;
70740;Laerm;58330;51.888;11.052;2024-02-23T09:30:25;35.95;27.66;49.02;;
70740;Laerm;58330;51.888;11.052;2024-02-23T09:32:55;37.25;27.78;49.38;;
70740;Laerm;58330;51.888;11.052;2024-02-23T09:35:21;31.80;27.50;47.02;;
70740;Laerm;58330;51.888;11.052;2024-02-23T09:37:48;42.04;27.54;51.48;;
70740;Laerm;58330;51.888;11.052;2024-02-23T09:40:15;90.50;28.14;111.44;;
70740;Laerm;58330;51.888;11.052;2024-02-23T09:42:42;97.97;-334.33;112.63;;
70740;Laerm;58330;51.888;11.052;2024-02-23T09:45:10;100.15;-325.30;112.66;;
70740;Laerm;58330;51.888;11.052;2024-02-23T09:47:40;28.63;27.30;30.29;;
70740;Laerm;58330;51.888;11.052;2024-02-23T09:50:10;28.51;27.25;29.73;;
70740;Laerm;58330;51.888;11.052;2024-02-23T09:52:37;28.50;27.32;29.85;;
70740;Laerm;58330;51.888;11.052;2024-02-23T09:55:04;93.01;-37.01;110.59;;
70740;Laerm;58330;51.888;11.052;2024-02-23T09:57:30;28.50;27.29;29.64;;
70740;Laerm;58330;51.888;11.052;2024-02-23T09:59:57;28.56;27.26;29.70;;
70740;Laerm;58330;51.888;11.052;2024-02-23T10:02:24;28.57;27.26;29.82;;
70740;Laerm;58330;51.888;11.052;2024-02-23T10:04:51;28.60;27.36;29.96;;
70740;Laerm;58330;51.888;11.052;2024-02-23T10:07:22;28.58;27.35;29.79;;
70740;Laerm;58330;51.888;11.052;2024-02-23T10:09:50;28.55;27.10;29.76;;
70740;Laerm;58330;51.888;11.052;2024-02-23T10:12:20;28.52;27.18;29.88;;
70740;Laerm;58330;51.888;11.052;2024-02-23T10:14:47;28.50;27.17;29.85;;
70740;Laerm;58330;51.888;11.052;2024-02-23T10:17:14;28.48;27.25;29.65;;
70740;Laerm;58330;51.888;11.052;2024-02-23T10:19:40;28.40;27.07;29.67;;
70740;Laerm;58330;51.888;11.052;2024-02-23T10:22:07;28.31;27.09;29.59;;
70740;Laerm;58330;51.888;11.052;2024-02-23T10:24:38;28.27;27.12;29.49;;
70740;Laerm;58330;51.888;11.052;2024-02-23T10:27:04;28.23;27.07;29.43;;
70740;Laerm;58330;51.888;11.052;2024-02-23T10:29:48;28.28;27.02;29.49;;
70740;Laerm;58330;51.888;11.052;2024-02-23T10:32:19;28.24;27.04;29.46;;
70740;Laerm;58330;51.888;11.052;2024-02-23T10:34:47;43.35;22.71;79.49;;
70740;Laerm;58330;51.888;11.052;2024-02-23T10:37:14;28.32;26.97;29.60;;
70740;Laerm;58330;51.888;11.052;2024-02-23T10:39:42;28.29;27.12;29.89;;
70740;Laerm;58330;51.888;11.052;2024-02-23T10:42:09;28.19;26.88;30.28;;
70740;Laerm;58330;51.888;11.052;2024-02-23T10:44:36;28.34;26.95;29.56;;
70740;Laerm;58330;51.888;11.052;2024-02-23T10:47:03;28.34;26.94;29.50;;
70740;Laerm;58330;51.888;11.052;2024-02-23T10:49:33;28.27;26.89;29.69;;
70740;Laerm;58330;51.888;11.052;2024-02-23T10:52:00;28.13;26.74;29.57;;
70740;Laerm;58330;51.888;11.052;2024-02-23T10:54:28;28.15;26.64;29.24;;
70740;Laerm;58330;51.888;11.052;2024-02-23T10:56:58;69.11;-325.30;100.47;;
70740;Laerm;58330;51.888;11.052;2024-02-23T10:59:27;27.12;5.00;29.47;;
70740;Laerm;58330;51.888;11.052;2024-02-23T11:01:54;28.13;26.88;29.37;;
70740;Laerm;58330;51.888;11.052;2024-02-23T11:04:24;62.90;3.50;96.23;;
70740;Laerm;58330;51.888;11.052;2024-02-23T11:06:51;28.21;26.97;29.47;;
70740;Laerm;58330;51.888;11.052;2024-02-23T11:09:20;70.72;-328.31;101.61;;
70740;Laerm;58330;51.888;11.052;2024-02-23T11:11:51;37.70;-329.56;73.47;;
70740;Laerm;58330;51.888;11.052;2024-02-23T11:14:28;5.00;5.00;5.00;;
70740;Laerm;58330;51.888;11.052;2024-02-23T11:16:55;59.60;-334.33;96.13;;
70740;Laerm;58330;51.888;11.052;2024-02-23T11:19:21;5.00;5.00;5.00;;
70740;Laerm;58330;51.888;11.052;2024-02-23T11:21:57;5.00;5.00;5.00;;
70740;Laerm;58330;51.888;11.052;2024-02-23T11:24:25;5.00;5.00;5.00;;
70740;Laerm;58330;51.888;11.052;2024-02-23T11:26:55;5.00;5.00;5.00;;
70740;Laerm;58330;51.888;11.052;2024-02-23T11:29:25;5.00;5.00;5.00;;
70740;Laerm;58330;51.888;11.052;2024-02-23T11:31:52;48.07;5.00;84.32;;
70740;Laerm;58330;51.888;11.052;2024-02-23T11:34:21;28.63;27.40;29.90;;
70740;Laerm;58330;51.888;11.052;2024-02-23T11:36:50;28.61;27.34;29.89;;
70740;Laerm;58330;51.888;11.052;2024-02-23T11:39:17;28.61;27.45;29.84;;
70740;Laerm;58330;51.888;11.052;2024-02-23T11:41:43;28.62;27.17;29.93;;
70740;Laerm;58330;51.888;11.052;2024-02-23T11:44:10;28.58;27.39;29.85;;
70740;Laerm;58330;51.888;11.052;2024-02-23T11:46:39;28.63;27.26;29.71;;
70740;Laerm;58330;51.888;11.052;2024-02-23T11:49:10;28.70;27.43;29.80;;
70740;Laerm;58330;51.888;11.052;2024-02-23T11:51:39;28.72;27.33;29.80;;
70740;Laerm;58330;51.888;11.052;2024-02-23T11:54:06;28.73;27.50;29.93;;
70740;Laerm;58330;51.888;11.052;2024-02-23T11:56:33;28.75;27.53;29.98;;
70740;Laerm;58330;51.888;11.052;2024-02-23T11:58:59;28.71;27.39;29.91;;
70740;Laerm;58330;51.888;11.052;2024-02-23T12:01:28;28.70;27.21;30.06;;
70740;Laerm;58330;51.888;11.052;2024-02-23T12:03:57;28.72;27.54;30.03;;
70740;Laerm;58330;51.888;11.052;2024-02-23T12:06:24;28.75;27.39;29.85;;
70740;Laerm;58330;51.888;11.052;2024-02-23T12:08:55;37.68;27.37;73.47;;
70740;Laerm;58330;51.888;11.052;2024-02-23T12:11:23;28.72;27.28;29.91;;
70740;Laerm;58330;51.888;11.052;2024-02-23T12:13:50;28.73;27.39;29.91;;
70740;Laerm;58330;51.888;11.052;2024-02-23T12:16:17;28.73;27.40;29.89;;
70740;Laerm;58330;51.888;11.052;2024-02-23T12:18:52;28.69;27.35;29.77;;
70740;Laerm;58330;51.888;11.052;2024-02-23T12:21:22;28.67;27.38;29.81;;
70740;Laerm;58330;51.888;11.052;2024-02-23T12:23:55;28.68;27.52;29.92;;
70740;Laerm;58330;51.888;11.052;2024-02-23T12:26:22;28.68;27.44;29.99;;
70740;Laerm;58330;51.888;11.052;2024-02-23T12:28:49;28.67;27.44;30.03;;
70740;Laerm;58330;51.888;11.052;2024-02-23T12:31:15;28.67;27.38;30.03;;
70740;Laerm;58330;51.888;11.052;2024-02-23T12:33:42;28.69;27.45;29.80;;
70740;Laerm;58330;51.888;11.052;2024-02-23T12:36:13;28.67;27.55;30.10;;
70740;Laerm;58330;51.888;11.052;2024-02-23T12:38:41;28.68;27.26;29.85;;
70740;Laerm;58330;51.888;11.052;2024-02-23T12:41:07;28.64;27.40;29.77;;
70740;Laerm;58330;51.888;11.052;2024-02-23T12:43:34;28.62;27.44;29.95;;
70740;Laerm;58330;51.888;11.052;2024-02-23T12:46:00;28.61;27.13;29.83;;
70740;Laerm;58330;51.888;11.052;2024-02-23T12:48:28;28.60;27.34;29.88;;
70740;Laerm;58330;51.888;11.052;2024-02-23T12:50:54;28.62;27.31;30.08;;
70740;Laerm;58330;51.888;11.052;2024-02-23T12:53:30;28.64;27.40;29.87;;
70740;Laerm;58330;51.888;11.052;2024-02-23T12:55:58;28.63;27.40;29.92;;
70740;Laerm;58330;51.888;11.052;2024-02-23T12:58:25;28.64;27.36;29.68;;
70740;Laerm;58330;51.888;11.052;2024-02-23T13:00:52;28.64;27.38;29.85;;
70740;Laerm;58330;51.888;11.052;2024-02-23T13:03:20;28.64;27.14;29.64;;
70740;Laerm;58330;51.888;11.052;2024-02-23T13:05:46;28.66;27.45;29.76;;
70740;Laerm;58330;51.888;11.052;2024-02-23T13:08:13;28.64;26.99;29.98;;
70740;Laerm;58330;51.888;11.052;2024-02-23T13:10:39;28.61;27.26;29.82;;
70740;Laerm;58330;51.888;11.052;2024-02-23T13:13:07;28.62;27.33;29.80;;
70740;Laerm;58330;51.888;11.052;2024-02-23T13:15:34;28.62;27.34;29.87;;
70740;Laerm;58330;51.888;11.052;2024-02-23T13:18:02;28.63;27.37;29.75;;
70740;Laerm;58330;51.888;11.052;2024-02-23T13:20:28;28.61;26.90;29.81;;
70740;Laerm;58330;51.888;11.052;2024-02-23T13:22:55;28.60;27.43;29.77;;
70740;Laerm;58330;51.888;11.052;2024-02-23T13:25:21;28.58;27.22;30.27;;
70740;Laerm;58330;51.888;11.052;2024-02-23T13:27:48;28.60;27.44;29.86;;
70740;Laerm;58330;51.888;11.052;2024-02-23T13:30:16;28.61;27.31;29.98;;
70740;Laerm;58330;51.888;11.052;2024-02-23T13:32:43;28.62;27.36;29.69;;
70740;Laerm;58330;51.888;11.052;2024-02-23T13:35:09;28.61;27.40;29.74;;
70740;Laerm;58330;51.888;11.052;2024-02-23T13:37:35;28.62;27.41;29.98;;